createdAt,value
2022-09-28T00:04:24.591Z,15.64
2022-09-28T00:09:26.750Z,15.57
2022-09-28T00:14:28.753Z,15.52
2022-09-28T00:19:31.008Z,15.47
2022-09-28T00:24:32.918Z,15.44
2022-09-28T00:29:36.849Z,15.24
2022-09-28T00:34:46.062Z,15.17
2022-09-28T00:39:49.457Z,15.15
2022-09-28T00:44:56.190Z,15.05
2022-09-28T00:50:19.828Z,14.99
2022-09-28T01:02:32.424Z,14.55
2022-09-28T01:07:36.413Z,14.58
2022-09-28T01:12:38.711Z,14.58
2022-09-28T01:18:21.347Z,14.55
2022-09-28T01:24:01.700Z,14.44
2022-09-28T01:29:24.559Z,14.43
2022-09-28T01:34:32.311Z,14.28
2022-09-28T01:39:38.177Z,14.27
2022-09-28T01:44:43.341Z,14.27
2022-09-28T01:49:48.702Z,14.19
2022-09-28T01:55:11.830Z,14.24
2022-09-28T02:00:15.537Z,14.26
2022-09-28T02:05:24.404Z,14.35
2022-09-28T02:10:34.448Z,14.28
2022-09-28T02:16:14.169Z,14.22
2022-09-28T02:21:43.181Z,14.15
2022-09-28T02:33:57.482Z,13.89
2022-09-28T02:39:02.568Z,14.08
2022-09-28T02:44:26.791Z,14.16
2022-09-28T02:50:00.495Z,14.12
2022-09-28T02:55:08.675Z,14.09
2022-09-28T03:00:20.131Z,13.91
2022-09-28T03:05:30.690Z,13.69
2022-09-28T03:10:41.102Z,13.69
2022-09-28T03:15:48.554Z,13.55
2022-09-28T03:20:52.604Z,13.81
2022-09-28T03:25:55.123Z,13.91
2022-09-28T03:30:57.463Z,13.86
2022-09-28T03:35:59.452Z,13.68
2022-09-28T03:41:01.666Z,13.69
2022-09-28T03:46:31.244Z,13.73
2022-09-28T03:51:38.623Z,13.71
2022-09-28T03:56:41.097Z,13.62
2022-09-28T04:02:15.298Z,13.52
2022-09-28T04:07:18.286Z,13.50
2022-09-28T04:12:20.432Z,13.25
2022-09-28T04:17:23.112Z,13.43
2022-09-28T04:22:25.305Z,13.34
2022-09-28T04:27:45.850Z,13.34
2022-09-28T04:32:48.450Z,13.17
2022-09-28T04:37:51.604Z,13.34
2022-09-28T04:42:55.544Z,13.31
2022-09-28T04:47:57.712Z,13.14
2022-09-28T04:53:23.697Z,13.32
2022-09-28T04:58:26.470Z,13.26
2022-09-28T05:03:29.184Z,13.28
2022-09-28T05:08:48.759Z,13.29
2022-09-28T05:13:51.536Z,13.31
2022-09-28T05:18:57.975Z,13.31
2022-09-28T05:24:00.093Z,13.11
2022-09-28T05:29:02.400Z,13.03
2022-09-28T05:34:23.002Z,12.96
2022-09-28T05:39:25.014Z,13.02
2022-09-28T05:44:26.920Z,13.03
2022-09-28T05:49:31.876Z,12.93
2022-09-28T05:54:35.689Z,12.89
2022-09-28T05:59:37.795Z,12.73
2022-09-28T06:04:40.944Z,12.83
2022-09-28T06:09:43.103Z,12.69
2022-09-28T06:14:45.102Z,12.49
2022-09-28T06:19:47.564Z,12.68
2022-09-28T06:25:12.813Z,12.57
2022-09-28T06:30:14.822Z,12.61
2022-09-28T06:35:17.036Z,12.69
2022-09-28T06:40:19.795Z,12.50
2022-09-28T06:45:25.653Z,12.76
2022-09-28T06:50:43.778Z,12.81
2022-09-28T06:56:14.739Z,12.84
2022-09-28T07:01:16.883Z,12.72
2022-09-28T07:06:31.670Z,12.63
2022-09-28T07:11:59.768Z,12.79
2022-09-28T07:17:14.646Z,13.06
2022-09-28T07:22:20.234Z,13.30
2022-09-28T07:27:29.059Z,13.46
2022-09-28T07:32:49.282Z,13.69
2022-09-28T07:38:06.414Z,14.10
2022-09-28T07:43:08.522Z,14.33
2022-09-28T07:53:33.395Z,14.36
2022-09-28T07:58:48.428Z,14.80
2022-09-28T08:04:08.719Z,15.09
2022-09-28T08:16:22.938Z,15.82
2022-09-28T08:21:47.889Z,16.17
2022-09-28T08:26:49.761Z,16.27
2022-09-28T08:31:53.008Z,16.52
2022-09-28T08:37:18.785Z,16.80
2022-09-28T08:42:42.910Z,17.25
2022-09-28T08:48:28.919Z,17.65
2022-09-28T08:54:06.969Z,18.12
2022-09-28T08:59:48.820Z,19.09
2022-09-28T09:12:33.380Z,20.01
2022-09-28T09:17:41.074Z,20.22
2022-09-28T09:23:17.409Z,20.55
2022-09-28T09:28:26.890Z,20.90
2022-09-28T09:34:18.145Z,20.94
2022-09-28T09:39:48.447Z,20.89
2022-09-28T09:45:30.234Z,20.86
2022-09-28T09:50:55.108Z,21.36
2022-09-28T09:56:02.743Z,21.51
2022-09-28T10:01:21.764Z,21.55
2022-09-28T10:06:56.852Z,21.75
2022-09-28T10:11:59.009Z,22.00
2022-09-28T10:17:02.524Z,21.90
2022-09-28T10:22:25.589Z,21.95
2022-09-28T10:27:34.920Z,21.88
2022-09-28T10:39:56.576Z,21.32
2022-09-28T10:45:05.445Z,21.81
2022-09-28T10:50:36.315Z,22.23
2022-09-28T10:56:06.317Z,22.62
2022-09-28T11:01:13.955Z,22.85
2022-09-28T11:06:16.397Z,22.98
2022-09-28T11:19:15.083Z,23.07
2022-09-28T11:24:22.449Z,22.82
2022-09-28T11:29:41.964Z,22.65
2022-09-28T11:35:21.290Z,22.53
2022-09-28T11:40:42.320Z,22.55
2022-09-28T11:46:09.519Z,22.41
2022-09-28T11:51:27.604Z,22.38
2022-09-28T11:56:36.134Z,22.24
2022-09-28T12:01:46.553Z,22.18
2022-09-28T12:07:15.254Z,21.91
2022-09-28T12:12:44.154Z,21.95
2022-09-28T12:17:51.356Z,21.80
2022-09-28T12:23:04.306Z,21.81
2022-09-28T12:28:13.296Z,21.60
2022-09-28T12:33:18.401Z,21.71
2022-09-28T12:38:26.385Z,21.88
2022-09-28T12:43:54.734Z,21.99
2022-09-28T12:50:33.367Z,21.96
2022-09-28T13:00:22.430Z,22.25
2022-09-28T13:05:33.403Z,22.37
2022-09-28T13:10:58.758Z,22.13
2022-09-28T13:16:18.114Z,21.75
2022-09-28T13:21:29.451Z,21.75
2022-09-28T13:26:41.379Z,21.78
2022-09-28T13:31:58.495Z,21.94
2022-09-28T13:37:20.043Z,22.01
2022-09-28T13:42:47.720Z,21.98
2022-09-28T13:48:06.360Z,21.86
2022-09-28T13:53:39.458Z,21.84
2022-09-28T13:58:44.365Z,21.77
2022-09-28T14:04:11.162Z,21.90
2022-09-28T14:09:41.350Z,21.83
2022-09-28T14:14:49.036Z,21.68
2022-09-28T14:19:54.003Z,21.68
2022-09-28T14:25:10.415Z,21.86
2022-09-28T14:30:12.080Z,21.84
2022-09-28T14:35:24.113Z,21.92
2022-09-28T14:40:49.779Z,21.96
2022-09-28T14:46:12.025Z,22.03
2022-09-28T14:51:27.079Z,22.08
2022-09-28T15:03:59.531Z,22.03
2022-09-28T15:09:01.467Z,22.03
2022-09-28T15:14:07.598Z,22.10
2022-09-28T15:19:27.434Z,22.16
2022-09-28T15:24:34.323Z,22.16
2022-09-28T15:29:36.206Z,22.12
2022-09-28T15:34:54.736Z,22.12
2022-09-28T15:39:58.271Z,22.13
2022-09-28T15:45:19.233Z,22.16
2022-09-28T15:50:30.217Z,22.10
2022-09-28T15:55:34.434Z,22.01
2022-09-28T16:00:36.432Z,22.07
2022-09-28T16:05:38.713Z,21.94
2022-09-28T16:10:56.848Z,21.92
2022-09-28T16:16:00.117Z,21.87
2022-09-28T16:21:26.949Z,21.78
2022-09-28T16:26:35.141Z,21.74
2022-09-28T16:31:38.051Z,21.64
2022-09-28T16:36:45.667Z,21.62
2022-09-28T16:41:56.183Z,21.51
2022-09-28T16:47:00.855Z,21.47
2022-09-28T16:52:02.871Z,21.43
2022-09-28T16:57:06.652Z,21.34
2022-09-28T17:02:45.159Z,21.30
2022-09-28T17:07:43.688Z,21.25
2022-09-28T17:12:46.167Z,21.23
2022-09-28T17:17:48.699Z,21.11
2022-09-28T17:22:51.037Z,21.08
2022-09-28T17:27:56.645Z,21.00
2022-09-28T17:33:01.628Z,21.04
2022-09-28T17:38:03.725Z,20.91
2022-09-28T17:43:06.906Z,20.70
2022-09-28T17:48:17.899Z,20.73
2022-09-28T17:53:20.012Z,20.63
2022-09-28T17:58:23.067Z,20.56
2022-09-28T18:03:25.895Z,20.32
2022-09-28T18:08:27.857Z,20.40
2022-09-28T18:13:29.772Z,20.40
2022-09-28T18:18:33.485Z,20.33
2022-09-28T18:23:37.166Z,20.17
2022-09-28T18:36:05.258Z,20.20
2022-09-28T18:41:15.996Z,19.97
2022-09-28T18:46:18.840Z,20.16
2022-09-28T18:51:21.370Z,20.14
2022-09-28T18:56:23.293Z,20.09
2022-09-28T19:01:29.998Z,20.03
2022-09-28T19:06:34.444Z,19.90
2022-09-28T19:11:36.543Z,19.86
2022-09-28T19:16:38.380Z,19.89
2022-09-28T19:21:41.381Z,19.84
2022-09-28T19:26:43.823Z,19.85
2022-09-28T19:32:01.486Z,19.79
2022-09-28T19:37:04.044Z,19.71
2022-09-28T19:42:06.350Z,19.75
2022-09-28T19:47:10.209Z,19.62
2022-09-28T19:52:16.917Z,19.64
2022-09-28T19:57:19.737Z,19.58
2022-09-28T20:02:22.048Z,19.57
2022-09-28T20:07:24.049Z,19.46
2022-09-28T20:12:26.642Z,19.59
2022-09-28T20:17:29.065Z,19.59
2022-09-28T20:29:43.190Z,19.48
2022-09-28T20:34:45.150Z,19.46
2022-09-28T20:39:47.097Z,19.46
2022-09-28T20:44:49.167Z,19.42
2022-09-28T20:49:51.053Z,19.43
2022-09-28T20:54:53.156Z,19.39
2022-09-28T20:59:55.108Z,19.31
2022-09-28T21:04:57.001Z,19.23
2022-09-28T21:09:58.889Z,19.20
2022-09-28T21:15:05.510Z,19.18
2022-09-28T21:20:08.604Z,19.11
2022-09-28T21:25:10.470Z,19.08
2022-09-28T21:30:12.554Z,19.04
2022-09-28T21:35:14.436Z,19.00
2022-09-28T21:40:16.396Z,18.91
2022-09-28T21:45:18.737Z,18.60
2022-09-28T21:50:24.787Z,18.67
2022-09-28T21:55:26.915Z,18.57
2022-09-28T22:01:43.416Z,18.44
2022-09-28T22:06:45.299Z,18.30
2022-09-28T22:11:49.229Z,18.32
2022-09-28T22:16:51.054Z,18.28
2022-09-28T22:21:53.118Z,18.04
2022-09-28T22:26:55.226Z,18.21
2022-09-28T22:32:02.484Z,18.13
2022-09-28T22:37:04.599Z,18.12
2022-09-28T22:42:06.923Z,18.03
2022-09-28T22:47:35.398Z,18.00
2022-09-28T22:52:38.077Z,17.95
2022-09-28T22:57:41.311Z,17.94
2022-09-28T23:02:43.262Z,17.89
2022-09-28T23:07:45.171Z,17.71
2022-09-28T23:12:47.004Z,17.81
2022-09-28T23:17:55.324Z,17.84
2022-09-28T23:30:21.816Z,17.83
2022-09-28T23:35:23.720Z,17.80
2022-09-28T23:40:25.698Z,17.78
2022-09-28T23:45:34.868Z,17.78
2022-09-28T23:50:36.726Z,17.74
2022-09-28T23:55:38.682Z,17.75
